createdAt,value
2022-11-28T00:01:36.874Z,99925.50
2022-11-28T00:04:04.906Z,99935.84
2022-11-28T00:06:32.012Z,99922.88
2022-11-28T00:08:59.750Z,99962.59
2022-11-28T00:11:26.677Z,99941.03
2022-11-28T00:13:54.405Z,99946.22
2022-11-28T00:16:22.175Z,99933.34
2022-11-28T00:18:53.093Z,99941.00
2022-11-28T00:21:20.176Z,99914.31
2022-11-28T00:23:47.512Z,99957.44
2022-11-28T00:26:17.208Z,99948.03
2022-11-28T00:28:44.187Z,99944.56
2022-11-28T00:31:15.395Z,99932.56
2022-11-28T00:33:42.569Z,99924.72
2022-11-28T00:36:09.842Z,99918.78
2022-11-28T00:38:36.907Z,99927.41
2022-11-28T00:41:08.644Z,99920.53
2022-11-28T00:43:35.761Z,99920.66
2022-11-28T00:46:03.357Z,99902.53
2022-11-28T00:48:30.341Z,99915.47
2022-11-28T00:51:10.357Z,99900.09
2022-11-28T00:53:37.485Z,99897.41
2022-11-28T00:56:05.920Z,99897.50
2022-11-28T00:58:36.037Z,99914.84
2022-11-28T01:01:13.999Z,99887.16
2022-11-28T01:03:41.150Z,99896.56
2022-11-28T01:06:08.295Z,99900.03
2022-11-28T01:08:35.350Z,99906.09
2022-11-28T01:11:02.492Z,99891.41
2022-11-28T01:13:29.513Z,99889.75
2022-11-28T01:15:56.468Z,99901.78
2022-11-28T01:18:23.480Z,99909.56
2022-11-28T01:20:50.392Z,99886.28
2022-11-28T01:23:18.701Z,99888.16
2022-11-28T01:25:45.636Z,99872.59
2022-11-28T01:28:12.734Z,99883.03
2022-11-28T01:30:39.637Z,99877.06
2022-11-28T01:33:06.640Z,99889.88
2022-11-28T01:35:33.592Z,99894.31
2022-11-28T01:38:00.520Z,99872.78
2022-11-28T01:40:27.507Z,99890.06
2022-11-28T01:42:54.476Z,99865.94
2022-11-28T01:45:23.324Z,99877.25
2022-11-28T01:47:50.884Z,99856.56
2022-11-28T01:50:17.837Z,99861.75
2022-11-28T01:52:45.966Z,99857.56
2022-11-28T01:55:13.372Z,99854.94
2022-11-28T01:57:40.307Z,99857.69
2022-11-28T02:00:13.287Z,99822.31
2022-11-28T02:02:41.768Z,99855.03
2022-11-28T02:05:09.030Z,99833.53
2022-11-28T02:07:36.275Z,99838.72
2022-11-28T02:10:03.925Z,99830.22
2022-11-28T02:12:37.049Z,99835.47
2022-11-28T02:15:35.080Z,99840.53
2022-11-28T02:18:10.995Z,99823.50
2022-11-28T02:20:56.650Z,99815.81
2022-11-28T02:23:46.831Z,99817.56
2022-11-28T02:26:21.857Z,99803.03
2022-11-28T02:29:10.778Z,99803.00
2022-11-28T02:31:56.686Z,99811.53
2022-11-28T02:35:07.175Z,99807.22
2022-11-28T02:37:56.100Z,99777.06
2022-11-28T02:40:37.655Z,99769.41
2022-11-28T02:43:27.600Z,99802.13
2022-11-28T02:46:08.550Z,99795.34
2022-11-28T02:48:55.721Z,99790.25
2022-11-28T02:51:43.961Z,99783.19
2022-11-28T02:54:12.408Z,99791.91
2022-11-28T02:56:39.596Z,99759.34
2022-11-28T02:59:39.203Z,99761.03
2022-11-28T03:02:13.603Z,99761.00
2022-11-28T03:05:04.531Z,99772.22
2022-11-28T03:08:16.361Z,99777.31
2022-11-28T03:10:59.569Z,99776.47
2022-11-28T03:13:42.180Z,99749.91
2022-11-28T03:16:22.873Z,99730.38
2022-11-28T03:19:05.135Z,99732.91
2022-11-28T03:21:59.052Z,99720.94
2022-11-28T03:24:35.854Z,99718.31
2022-11-28T03:27:17.060Z,99701.91
2022-11-28T03:29:46.779Z,99720.81
2022-11-28T03:32:24.783Z,99737.13
2022-11-28T03:34:56.734Z,99733.66
2022-11-28T03:37:25.999Z,99726.69
2022-11-28T03:39:55.523Z,99720.56
2022-11-28T03:42:23.910Z,99718.00
2022-11-28T03:45:15.434Z,99742.13
2022-11-28T03:47:47.333Z,99738.59
2022-11-28T03:50:23.352Z,99721.41
2022-11-28T03:52:52.293Z,99733.41
2022-11-28T03:55:21.069Z,99735.13
2022-11-28T03:58:03.568Z,99692.06
2022-11-28T04:00:30.592Z,99701.56
2022-11-28T04:03:06.742Z,99722.22
2022-11-28T04:05:50.426Z,99718.69
2022-11-28T04:08:18.838Z,99699.78
2022-11-28T04:10:57.052Z,99721.22
2022-11-28T04:13:45.364Z,99724.59
2022-11-28T04:16:34.493Z,99719.31
2022-11-28T04:19:11.651Z,99728.03
2022-11-28T04:21:49.220Z,99737.50
2022-11-28T04:24:18.836Z,99732.41
2022-11-28T04:26:48.203Z,99708.31
2022-11-28T04:29:16.947Z,99715.22
2022-11-28T04:31:44.752Z,99712.56
2022-11-28T04:34:14.404Z,99722.88
2022-11-28T04:36:41.431Z,99714.25
2022-11-28T04:39:10.590Z,99709.09
2022-11-28T04:41:59.222Z,99731.44
2022-11-28T04:44:49.444Z,99732.25
2022-11-28T04:47:16.428Z,99721.91
2022-11-28T04:49:43.321Z,99706.41
2022-11-28T04:52:17.340Z,99728.03
2022-11-28T04:54:56.291Z,99736.56
2022-11-28T04:57:37.848Z,99693.56
2022-11-28T05:00:10.070Z,99706.50
2022-11-28T05:02:37.417Z,99712.53
2022-11-28T05:05:12.006Z,99703.06
2022-11-28T05:07:39.113Z,99707.25
2022-11-28T05:10:07.432Z,99711.69
2022-11-28T05:12:34.581Z,99730.56
2022-11-28T05:15:01.575Z,99691.81
2022-11-28T05:17:28.575Z,99729.63
2022-11-28T05:19:55.474Z,99720.25
2022-11-28T05:22:22.484Z,99739.97
2022-11-28T05:24:49.408Z,99700.19
2022-11-28T05:27:16.397Z,99710.50
2022-11-28T05:29:49.378Z,99746.69
2022-11-28T05:32:19.029Z,99748.38
2022-11-28T05:34:45.929Z,99727.59
2022-11-28T05:37:12.966Z,99716.41
2022-11-28T05:39:40.131Z,99722.22
2022-11-28T05:42:07.303Z,99749.53
2022-11-28T05:44:34.240Z,99726.38
2022-11-28T05:47:01.209Z,99719.50
2022-11-28T05:49:29.059Z,99707.56
2022-11-28T05:51:56.018Z,99737.81
2022-11-28T05:54:23.059Z,99729.09
2022-11-28T05:56:50.025Z,99710.03
2022-11-28T05:59:17.087Z,99724.69
2022-11-28T06:01:44.155Z,99734.13
2022-11-28T06:04:11.259Z,99697.16
2022-11-28T06:06:38.305Z,99704.03
2022-11-28T06:09:05.473Z,99704.09
2022-11-28T06:11:32.640Z,99718.69
2022-11-28T06:13:59.656Z,99717.13
2022-11-28T06:16:27.766Z,99692.25
2022-11-28T06:18:59.740Z,99724.13
2022-11-28T06:21:27.320Z,99670.75
2022-11-28T06:23:54.368Z,99688.81
2022-11-28T06:26:23.048Z,99706.13
2022-11-28T06:28:50.124Z,99708.69
2022-11-28T06:31:21.113Z,99681.16
2022-11-28T06:33:57.391Z,99706.13
2022-11-28T06:36:27.289Z,99678.66
2022-11-28T06:38:54.580Z,99689.94
2022-11-28T06:42:14.901Z,99682.31
2022-11-28T06:44:25.981Z,99666.72
2022-11-28T06:47:03.800Z,99698.44
2022-11-28T06:49:45.704Z,99702.00
2022-11-28T06:52:15.095Z,99689.13
2022-11-28T06:54:44.805Z,99689.94
2022-11-28T06:57:12.480Z,99701.16
2022-11-28T06:59:54.086Z,99696.03
2022-11-28T07:02:25.600Z,99671.75
2022-11-28T07:04:53.989Z,99686.56
2022-11-28T07:07:21.242Z,99710.00
2022-11-28T07:10:00.355Z,99684.13
2022-11-28T07:12:35.040Z,99720.25
2022-11-28T07:15:07.116Z,99679.59
2022-11-28T07:17:35.275Z,99672.72
2022-11-28T07:20:14.162Z,99726.16
2022-11-28T07:23:06.695Z,99678.03
2022-11-28T07:29:32.348Z,99671.06
2022-11-28T07:33:00.799Z,99683.94
2022-11-28T07:35:30.732Z,99674.56
2022-11-28T07:40:50.794Z,99678.13
2022-11-28T07:43:21.086Z,99693.69
2022-11-28T07:46:00.496Z,99684.25
2022-11-28T07:48:28.680Z,99665.41
2022-11-28T07:51:09.056Z,99677.53
2022-11-28T07:53:58.867Z,99674.22
2022-11-28T07:56:50.223Z,99671.72
2022-11-28T07:59:20.140Z,99666.53
2022-11-28T08:01:50.550Z,99678.59
2022-11-28T08:04:17.825Z,99659.84
2022-11-28T08:06:47.444Z,99662.47
2022-11-28T08:09:14.656Z,99659.06
2022-11-28T08:11:53.648Z,99665.78
2022-11-28T08:14:20.801Z,99640.91
2022-11-28T08:16:54.258Z,99658.97
2022-11-28T08:19:24.988Z,99653.66
2022-11-28T08:21:57.176Z,99653.88
2022-11-28T08:24:29.286Z,99667.66
2022-11-28T08:26:57.062Z,99665.06
2022-11-28T08:29:24.080Z,99668.47
2022-11-28T08:32:05.000Z,99660.88
2022-11-28T08:34:39.514Z,99672.03
2022-11-28T08:37:08.989Z,99684.16
2022-11-28T08:39:38.807Z,99660.06
2022-11-28T08:42:05.961Z,99665.22
2022-11-28T08:45:34.881Z,99652.44
2022-11-28T08:49:37.303Z,99674.66
2022-11-28T08:51:32.450Z,99665.13
2022-11-28T08:54:58.211Z,99665.28
2022-11-28T08:57:28.636Z,99657.53
2022-11-28T09:02:13.742Z,99652.44
2022-11-28T09:03:45.589Z,99683.41
2022-11-28T09:06:26.030Z,99675.69
2022-11-28T09:09:43.131Z,99650.88
2022-11-28T09:12:31.181Z,99663.91
2022-11-28T09:15:53.709Z,99619.19
2022-11-28T09:18:23.930Z,99629.53
2022-11-28T09:21:19.806Z,99658.72
2022-11-28T09:23:59.418Z,99628.59
2022-11-28T09:26:38.308Z,99665.66
2022-11-28T09:30:02.367Z,99628.75
2022-11-28T09:32:53.679Z,99624.31
2022-11-28T09:35:57.801Z,99632.13
2022-11-28T09:39:03.406Z,99624.41
2022-11-28T09:45:47.505Z,99616.84
2022-11-28T09:48:44.139Z,99651.38
2022-11-28T09:51:42.100Z,99605.94
2022-11-28T09:58:31.085Z,99640.38
2022-11-28T10:05:49.016Z,99628.34
2022-11-28T10:09:22.819Z,99627.50
2022-11-28T10:12:40.013Z,99621.59
2022-11-28T10:16:10.767Z,99624.22
2022-11-28T10:19:02.949Z,99600.94
2022-11-28T10:21:48.981Z,99602.69
2022-11-28T10:27:52.951Z,99601.97
2022-11-28T10:30:52.187Z,99623.53
2022-11-28T10:48:37.910Z,99610.78
2022-11-28T10:51:36.605Z,99581.59
2022-11-28T10:54:48.971Z,99578.25
2022-11-28T10:58:08.084Z,99604.06
2022-11-28T11:00:39.096Z,99605.84
2022-11-28T11:03:10.979Z,99570.66
2022-11-28T11:05:45.514Z,99562.09
2022-11-28T11:08:32.922Z,99544.97
2022-11-28T11:11:36.432Z,99603.25
2022-11-28T11:14:54.060Z,99581.94
2022-11-28T11:17:36.293Z,99572.53
2022-11-28T11:20:27.450Z,99557.88
2022-11-28T11:23:04.043Z,99566.56
2022-11-28T11:25:35.368Z,99550.25
2022-11-28T11:28:08.659Z,99542.44
2022-11-28T11:30:43.293Z,99574.16
2022-11-28T11:33:15.796Z,99545.16
2022-11-28T11:35:47.827Z,99538.34
2022-11-28T11:38:18.997Z,99571.09
2022-11-28T11:40:46.116Z,99577.09
2022-11-28T11:43:26.854Z,99576.25
2022-11-28T11:46:10.930Z,99562.50
2022-11-28T11:48:45.626Z,99532.41
2022-11-28T11:51:28.454Z,99559.00
2022-11-28T11:54:05.270Z,99542.59
2022-11-28T11:56:37.929Z,99551.19
2022-11-28T11:59:14.185Z,99546.13
2022-11-28T12:01:41.451Z,99541.81
2022-11-28T12:04:30.629Z,99514.41
2022-11-28T12:06:55.633Z,99514.44
2022-11-28T12:09:29.144Z,99531.66
2022-11-28T12:12:25.061Z,99547.13
2022-11-28T12:14:52.835Z,99500.75
2022-11-28T12:20:53.280Z,99535.81
2022-11-28T12:23:29.735Z,99533.44
2022-11-28T12:26:33.300Z,99527.53
2022-11-28T12:29:09.709Z,99526.72
2022-11-28T12:31:46.199Z,99506.13
2022-11-28T12:34:19.405Z,99528.44
2022-11-28T12:37:05.761Z,99522.34
2022-11-28T12:39:38.905Z,99522.16
2022-11-28T12:42:06.164Z,99515.38
2022-11-28T12:45:23.817Z,99512.63
2022-11-28T12:48:22.808Z,99515.28
2022-11-28T12:51:01.506Z,99497.25
2022-11-28T12:53:43.690Z,99517.97
2022-11-28T12:56:37.766Z,99523.00
2022-11-28T12:59:54.310Z,99506.75
2022-11-28T13:02:21.371Z,99513.59
2022-11-28T13:05:15.709Z,99485.28
2022-11-28T13:08:10.733Z,99495.50
2022-11-28T13:10:55.945Z,99500.75
2022-11-28T13:13:57.362Z,99502.44
2022-11-28T13:16:27.290Z,99506.72
2022-11-28T13:19:11.523Z,99475.03
2022-11-28T13:21:44.275Z,99510.25
2022-11-28T13:24:40.455Z,99506.78
2022-11-28T13:27:32.652Z,99478.47
2022-11-28T13:30:22.425Z,99501.53
2022-11-28T13:33:38.161Z,99495.53
2022-11-28T13:36:05.839Z,99472.34
2022-11-28T13:39:10.858Z,99501.59
2022-11-28T13:42:28.769Z,99501.56
2022-11-28T13:44:47.507Z,99499.94
2022-11-28T13:47:25.901Z,99505.13
2022-11-28T13:49:53.055Z,99469.19
2022-11-28T13:52:21.400Z,99494.03
2022-11-28T13:54:52.626Z,99464.78
2022-11-28T13:57:23.848Z,99494.97
2022-11-28T14:00:06.323Z,99467.50
2022-11-28T14:02:45.149Z,99473.50
2022-11-28T14:05:39.111Z,99461.50
2022-11-28T14:08:08.576Z,99450.41
2022-11-28T14:11:28.369Z,99466.47
2022-11-28T14:14:19.312Z,99462.91
2022-11-28T14:16:55.346Z,99492.25
2022-11-28T14:19:56.605Z,99488.81
2022-11-28T14:22:24.391Z,99493.88
2022-11-28T14:25:17.392Z,99466.38
2022-11-28T14:27:54.676Z,99449.31
2022-11-28T14:30:30.911Z,99453.44
2022-11-28T14:33:08.426Z,99458.63
2022-11-28T14:35:50.910Z,99485.25
2022-11-28T14:38:30.743Z,99495.53
2022-11-28T14:41:08.896Z,99457.00
2022-11-28T14:43:46.524Z,99478.25
2022-11-28T14:46:29.195Z,99469.63
2022-11-28T14:49:05.811Z,99494.47
2022-11-28T14:52:09.842Z,99507.13
2022-11-28T14:55:03.122Z,99485.72
2022-11-28T14:57:34.030Z,99458.34
2022-11-28T15:00:18.063Z,99454.06
2022-11-28T15:03:27.467Z,99481.44
2022-11-28T15:06:00.588Z,99454.69
2022-11-28T15:08:43.013Z,99511.28
2022-11-28T15:11:16.378Z,99501.78
2022-11-28T15:13:54.737Z,99515.53
2022-11-28T15:16:26.096Z,99487.25
2022-11-28T15:18:58.417Z,99484.72
2022-11-28T15:21:32.392Z,99495.72
2022-11-28T15:24:02.002Z,99515.19
2022-11-28T15:26:30.312Z,99479.97
2022-11-28T15:29:24.121Z,99522.22
2022-11-28T15:31:52.369Z,99503.41
2022-11-28T15:34:42.985Z,99507.63
2022-11-28T15:37:20.931Z,99486.22
2022-11-28T15:39:50.694Z,99521.38
2022-11-28T15:42:23.696Z,99523.88
2022-11-28T15:45:04.307Z,99494.41
2022-11-28T15:47:31.435Z,99483.28
2022-11-28T15:50:01.973Z,99512.53
2022-11-28T15:52:29.196Z,99513.47
2022-11-28T15:54:56.469Z,99480.88
2022-11-28T15:57:28.827Z,99474.16
2022-11-28T15:59:56.746Z,99482.84
2022-11-28T16:02:34.726Z,99482.75
2022-11-28T16:05:42.552Z,99490.44
2022-11-28T16:08:28.771Z,99507.53
2022-11-28T16:11:01.022Z,99521.28
2022-11-28T16:13:31.658Z,99519.63
2022-11-28T16:16:00.248Z,99503.25
2022-11-28T16:18:30.400Z,99500.69
2022-11-28T16:20:58.300Z,99512.63
2022-11-28T16:23:35.601Z,99540.13
2022-11-28T16:26:26.880Z,99510.06
2022-11-28T16:29:12.403Z,99507.50
2022-11-28T16:31:39.431Z,99520.44
2022-11-28T16:34:12.011Z,99497.06
2022-11-28T16:36:42.523Z,99510.97
2022-11-28T16:39:35.251Z,99488.34
2022-11-28T16:42:15.216Z,99510.75
2022-11-28T16:44:42.474Z,99508.28
2022-11-28T16:47:27.002Z,99507.34
2022-11-28T16:50:16.087Z,99528.78
2022-11-28T16:52:55.807Z,99528.84
2022-11-28T16:55:28.934Z,99533.94
2022-11-28T16:58:20.733Z,99532.97
2022-11-28T17:00:52.678Z,99486.66
2022-11-28T17:03:42.640Z,99528.75
2022-11-28T17:06:18.785Z,99485.78
2022-11-28T17:08:45.990Z,99481.47
2022-11-28T17:11:13.165Z,99502.09
2022-11-28T17:13:40.539Z,99493.47
2022-11-28T17:16:14.785Z,99493.56
2022-11-28T17:18:45.240Z,99480.63
2022-11-28T17:21:12.489Z,99497.88
2022-11-28T17:23:41.653Z,99516.81
2022-11-28T17:26:13.333Z,99468.72
2022-11-28T17:28:49.248Z,99501.25
2022-11-28T17:31:16.301Z,99526.16
2022-11-28T17:33:44.860Z,99511.53
2022-11-28T17:36:12.530Z,99497.75
2022-11-28T17:38:39.646Z,99489.97
2022-11-28T17:41:06.602Z,99505.38
2022-11-28T17:43:38.728Z,99510.53
2022-11-28T17:46:06.221Z,99506.25
2022-11-28T17:48:33.212Z,99488.13
2022-11-28T17:51:02.137Z,99506.13
2022-11-28T17:53:29.178Z,99492.38
2022-11-28T17:55:59.190Z,99521.34
2022-11-28T17:58:26.776Z,99538.41
2022-11-28T18:00:59.995Z,99525.66
2022-11-28T18:03:29.935Z,99529.91
2022-11-28T18:05:57.280Z,99492.09
2022-11-28T18:08:24.577Z,99510.94
2022-11-28T18:11:02.461Z,99531.59
2022-11-28T18:13:29.408Z,99516.03
2022-11-28T18:15:56.795Z,99533.22
2022-11-28T18:18:23.986Z,99503.22
2022-11-28T18:20:51.192Z,99517.78
2022-11-28T18:23:18.190Z,99537.59
2022-11-28T18:25:45.399Z,99514.44
2022-11-28T18:28:18.483Z,99512.56
2022-11-28T18:30:47.273Z,99513.34
2022-11-28T18:33:14.614Z,99525.34
2022-11-28T18:35:41.707Z,99515.88
2022-11-28T18:38:08.856Z,99528.75
2022-11-28T18:40:36.589Z,99521.09
2022-11-28T18:43:03.905Z,99518.56
2022-11-28T18:45:31.012Z,99515.06
2022-11-28T18:48:00.355Z,99548.47
2022-11-28T18:50:28.571Z,99526.13
2022-11-28T18:52:56.785Z,99549.19
2022-11-28T18:55:23.995Z,99510.53
2022-11-28T18:57:51.016Z,99524.41
2022-11-28T19:00:19.410Z,99553.59
2022-11-28T19:02:48.620Z,99516.56
2022-11-28T19:05:15.689Z,99537.88
2022-11-28T19:07:42.818Z,99556.75
2022-11-28T19:10:10.301Z,99549.13
2022-11-28T19:12:37.507Z,99517.31
2022-11-28T19:15:04.910Z,99551.72
2022-11-28T19:17:32.564Z,99532.84
2022-11-28T19:19:59.838Z,99514.91
2022-11-28T19:22:26.952Z,99524.28
2022-11-28T19:24:53.987Z,99515.66
2022-11-28T19:27:22.700Z,99550.91
2022-11-28T19:29:49.736Z,99509.66
2022-11-28T19:32:18.279Z,99535.34
2022-11-28T19:34:45.353Z,99531.16
2022-11-28T19:37:15.332Z,99540.53
2022-11-28T19:39:42.716Z,99538.03
2022-11-28T19:42:09.911Z,99520.75
2022-11-28T19:44:37.028Z,99558.28
2022-11-28T19:47:06.266Z,99530.03
2022-11-28T19:49:33.559Z,99542.97
2022-11-28T19:52:01.764Z,99511.34
2022-11-28T19:54:28.894Z,99526.81
2022-11-28T19:57:00.272Z,99567.16
2022-11-28T19:59:27.804Z,99526.00
2022-11-28T20:01:55.033Z,99518.28
2022-11-28T20:04:22.783Z,99530.28
2022-11-28T20:06:49.901Z,99540.72
2022-11-28T20:09:17.477Z,99527.81
2022-11-28T20:11:45.124Z,99531.31
2022-11-28T20:14:17.641Z,99538.19
2022-11-28T20:16:44.977Z,99557.06
2022-11-28T20:19:13.114Z,99529.66
2022-11-28T20:21:40.540Z,99538.16
2022-11-28T20:24:08.829Z,99521.88
2022-11-28T20:26:38.500Z,99505.66
2022-11-28T20:29:06.083Z,99546.88
2022-11-28T20:31:38.710Z,99562.31
2022-11-28T20:34:06.678Z,99514.28
2022-11-28T20:36:37.106Z,99538.41
2022-11-28T20:39:06.448Z,99520.97
2022-11-28T20:41:33.591Z,99507.25
2022-11-28T20:44:01.136Z,99515.06
2022-11-28T20:46:32.421Z,99522.78
2022-11-28T20:49:04.521Z,99550.97
2022-11-28T20:51:35.279Z,99519.09
2022-11-28T20:54:02.595Z,99521.75
2022-11-28T20:56:30.668Z,99550.25
2022-11-28T20:59:01.820Z,99523.56
2022-11-28T21:01:30.924Z,99514.19
2022-11-28T21:03:58.619Z,99527.91
2022-11-28T21:06:25.676Z,99531.34
2022-11-28T21:08:52.721Z,99517.53
2022-11-28T21:11:43.847Z,99527.88
2022-11-28T21:14:08.380Z,99526.00
2022-11-28T21:16:35.369Z,99523.47
2022-11-28T21:19:05.267Z,99555.34
2022-11-28T21:21:32.898Z,99563.09
2022-11-28T21:24:02.585Z,99560.56
2022-11-28T21:26:30.628Z,99540.75
2022-11-28T21:29:00.212Z,99528.78
2022-11-28T21:31:28.995Z,99547.63
2022-11-28T21:33:56.884Z,99557.09
2022-11-28T21:36:24.348Z,99527.00
2022-11-28T21:38:51.939Z,99517.59
2022-11-28T21:41:19.504Z,99526.28
2022-11-28T21:43:47.443Z,99530.53
2022-11-28T21:46:14.595Z,99528.84
2022-11-28T21:48:42.345Z,99521.84
2022-11-28T21:51:17.338Z,99532.16
2022-11-28T21:53:44.331Z,99533.91
2022-11-28T21:56:11.751Z,99539.22
2022-11-28T21:58:39.163Z,99540.84
2022-11-28T22:01:09.374Z,99529.66
2022-11-28T22:03:37.793Z,99521.13
2022-11-28T22:06:05.921Z,99550.41
2022-11-28T22:08:33.969Z,99511.75
2022-11-28T22:11:05.019Z,99525.53
2022-11-28T22:13:33.102Z,99523.78
2022-11-28T22:16:00.352Z,99501.47
2022-11-28T22:18:30.978Z,99525.56
2022-11-28T22:21:06.556Z,99508.41
2022-11-28T22:23:39.209Z,99531.47
2022-11-28T22:26:07.106Z,99518.63
2022-11-28T22:28:34.919Z,99538.34
2022-11-28T22:31:13.683Z,99534.91
2022-11-28T22:33:40.891Z,99509.00
2022-11-28T22:36:11.061Z,99533.84
2022-11-28T22:38:38.937Z,99560.56
2022-11-28T22:41:07.716Z,99553.63
2022-11-28T22:43:34.776Z,99525.19
2022-11-28T22:46:02.567Z,99531.31
2022-11-28T22:48:30.864Z,99546.75
2022-11-28T22:50:58.127Z,99534.66
2022-11-28T22:53:25.444Z,99516.66
2022-11-28T22:55:52.641Z,99551.03
2022-11-28T22:58:19.679Z,99528.00
2022-11-28T23:00:46.800Z,99535.47
2022-11-28T23:03:14.023Z,99537.22
2022-11-28T23:05:44.292Z,99534.63
2022-11-28T23:08:14.287Z,99522.66
2022-11-28T23:10:41.691Z,99519.34
2022-11-28T23:13:08.747Z,99526.25
2022-11-28T23:15:43.080Z,99528.50
2022-11-28T23:18:12.191Z,99515.59
2022-11-28T23:20:39.678Z,99533.59
2022-11-28T23:23:06.891Z,99529.44
2022-11-28T23:25:35.937Z,99552.75
2022-11-28T23:28:03.374Z,99572.44
2022-11-28T23:30:30.470Z,99535.66
2022-11-28T23:32:57.799Z,99535.56
2022-11-28T23:35:24.845Z,99564.00
2022-11-28T23:37:52.115Z,99524.47
2022-11-28T23:40:19.510Z,99527.94
2022-11-28T23:42:46.548Z,99541.66
2022-11-28T23:45:13.548Z,99532.28
2022-11-28T23:47:40.523Z,99527.88
2022-11-28T23:50:08.151Z,99527.88
2022-11-28T23:52:35.149Z,99520.19
2022-11-28T23:55:02.098Z,99535.75
2022-11-28T23:57:29.121Z,99532.19
2022-11-28T23:59:56.038Z,99523.72
